Time;durP1;ratioP1;P1;durP2;ratioP2;P2;SDS_P1;SDS_P2;PMS_P1;PMS_P2;Temp;Humidity;BMP_temperature;BMP_pressure;BME280_temperature;BME280_humidity;BME280_pressure;Samples;Min_cycle;Max_cycle;Signal;HPM_P1;HPM_P2
2023/01/19 00:01:36;;;;;;;14.17;8.40;;;;;;;-2.24;100.00;97120.56;5035304;28;20650;-75
2023/01/19 00:04:02;;;;;;;12.47;8.03;;;;;;;-2.32;100.00;97128.59;5039926;28;20210;-75
2023/01/19 00:06:28;;;;;;;14.50;8.90;;;;;;;-2.40;100.00;97124.59;5038094;28;20215;-76
2023/01/19 00:08:55;;;;;;;13.23;8.30;;;;;;;-2.38;100.00;97123.63;5034681;28;20215;-75
2023/01/19 00:11:21;;;;;;;11.93;8.23;;;;;;;-2.41;100.00;97126.34;5034728;28;20233;-75
2023/01/19 00:13:49;;;;;;;14.20;8.40;;;;;;;-2.42;100.00;97127.25;5034488;28;20236;-75
2023/01/19 00:16:18;;;;;;;12.87;8.17;;;;;;;-2.49;100.00;97133.53;5034718;28;20718;-75
2023/01/19 00:18:45;;;;;;;15.47;9.20;;;;;;;-2.50;100.00;97134.41;5034493;28;20219;-75
2023/01/19 00:21:13;;;;;;;12.67;8.47;;;;;;;-2.46;100.00;97132.56;5034228;28;20218;-76
2023/01/19 00:23:40;;;;;;;14.60;8.17;;;;;;;-2.47;100.00;97133.44;5034473;28;20247;-75
2023/01/19 00:26:07;;;;;;;14.50;8.50;;;;;;;-2.52;100.00;97136.19;5034387;28;20217;-76
2023/01/19 00:28:34;;;;;;;12.53;7.70;;;;;;;-2.57;100.00;97134.69;5034283;28;20209;-75
2023/01/19 00:31:00;;;;;;;15.17;9.10;;;;;;;-2.59;100.00;97134.72;5033711;28;20216;-75
2023/01/19 00:33:28;;;;;;;14.10;9.53;;;;;;;-2.58;100.00;97135.59;5034124;28;20329;-76
2023/01/19 00:35:55;;;;;;;12.43;8.30;;;;;;;-2.55;100.00;97135.47;5034423;28;20222;-75
2023/01/19 00:38:21;;;;;;;11.63;7.67;;;;;;;-2.57;100.00;97139.84;5034299;28;20291;-76
2023/01/19 00:40:49;;;;;;;13.40;8.47;;;;;;;-2.56;100.00;97138.94;5033813;28;20209;-76
2023/01/19 00:43:15;;;;;;;12.90;8.03;;;;;;;-2.47;100.00;97144.66;5034279;28;20595;-76
2023/01/19 00:45:42;;;;;;;13.03;8.43;;;;;;;-2.47;100.00;97139.47;5034250;28;20216;-76
2023/01/19 00:48:08;;;;;;;14.77;9.33;;;;;;;-2.46;100.00;97140.34;5034219;28;20211;-75
2023/01/19 00:50:36;;;;;;;12.20;8.27;;;;;;;-2.47;100.00;97146.38;5032125;28;20215;-75
2023/01/19 00:53:03;;;;;;;12.90;8.67;;;;;;;-2.49;100.00;97146.47;5033809;28;20247;-76
2023/01/19 00:55:31;;;;;;;14.00;9.50;;;;;;;-2.49;100.00;97143.88;5034624;28;20212;-75
2023/01/19 00:57:58;;;;;;;12.40;8.20;;;;;;;-2.50;100.00;97142.16;5034556;28;20290;-75
2023/01/19 01:00:26;;;;;;;14.30;9.10;;;;;;;-2.51;100.00;97148.22;5033461;28;20295;-75
2023/01/19 01:02:53;;;;;;;12.80;8.43;;;;;;;-2.51;100.00;97147.41;5034195;28;20221;-75
2023/01/19 01:05:20;;;;;;;17.10;9.43;;;;;;;-2.54;100.00;97150.06;5034172;28;20693;-75
2023/01/19 01:07:48;;;;;;;14.80;8.53;;;;;;;-2.54;100.00;97143.19;5034108;28;20209;-75
2023/01/19 01:10:18;;;;;;;13.27;8.93;;;;;;;-2.49;100.00;97145.59;5033398;28;20560;-75
2023/01/19 01:12:45;;;;;;;14.03;9.10;;;;;;;-2.47;100.00;97143.78;5033676;28;20239;-73
2023/01/19 01:15:13;;;;;;;14.97;9.67;;;;;;;-2.46;100.00;97140.34;5033892;28;20215;-78
2023/01/19 01:17:46;;;;;;;15.57;9.57;;;;;;;-2.52;100.00;97145.72;5033647;28;20222;-75
2023/01/19 01:20:16;;;;;;;15.37;8.93;;;;;;;-2.52;100.00;97138.78;5032739;28;20222;-75
2023/01/19 01:22:44;;;;;;;14.27;9.60;;;;;;;-2.54;100.00;97147.50;5033620;28;20323;-76
2023/01/19 01:25:12;;;;;;;15.87;9.23;;;;;;;-2.62;100.00;97152.09;5033382;28;20215;-75
2023/01/19 01:27:39;;;;;;;13.73;9.43;;;;;;;-2.65;100.00;97154.75;5033478;28;20207;-76
2023/01/19 01:30:07;;;;;;;12.23;8.53;;;;;;;-2.68;100.00;97157.47;5032583;28;20592;-76
2023/01/19 01:32:33;;;;;;;14.67;9.17;;;;;;;-2.70;100.00;97167.00;5033107;28;20247;-76
2023/01/19 01:35:00;;;;;;;14.33;8.57;;;;;;;-2.83;100.00;97158.78;5033267;28;20215;-76
2023/01/19 01:37:26;;;;;;;13.03;8.37;;;;;;;-2.83;100.00;97160.53;5033494;28;20216;-76
2023/01/19 01:39:53;;;;;;;12.60;9.03;;;;;;;-2.86;100.00;97160.63;5032575;28;20228;-75
2023/01/19 01:42:26;;;;;;;14.10;8.47;;;;;;;-2.86;100.00;97165.81;5033169;28;20231;-76
2023/01/19 01:44:54;;;;;;;14.80;9.37;;;;;;;-2.87;100.00;97164.94;5033107;28;20211;-76
2023/01/19 01:47:28;;;;;;;14.30;9.30;;;;;;;-2.87;100.00;97164.94;5033198;28;20207;-73
2023/01/19 01:50:02;;;;;;;13.67;9.27;;;;;;;-2.90;100.00;97159.03;5032131;28;20216;-76
2023/01/19 01:52:32;;;;;;;13.27;9.53;;;;;;;-2.79;100.00;97156.97;5032971;28;20228;-76
2023/01/19 01:54:59;;;;;;;17.33;9.60;;;;;;;-2.81;100.00;97159.59;5032659;28;20663;-75
2023/01/19 01:57:27;;;;;;;13.67;9.33;;;;;;;-2.82;100.00;97163.06;5032673;28;20215;-76
2023/01/19 01:59:57;;;;;;;12.23;8.80;;;;;;;-2.84;100.00;97158.84;5031039;28;20793;-76
2023/01/19 02:05:16;;;;;;;15.90;9.50;;;;;;;-2.86;100.00;97168.41;5032025;28;20210;-77
2023/01/19 02:13:20;;;;;;;14.23;9.13;;;;;;;-2.92;100.00;97155.66;5032530;28;20234;-77
2023/01/19 02:15:48;;;;;;;12.83;8.83;;;;;;;-2.98;100.00;97155.84;5032473;28;20244;-76
2023/01/19 02:18:15;;;;;;;13.83;9.30;;;;;;;-3.08;100.00;97150.13;5032371;28;20279;-76
2023/01/19 02:20:46;;;;;;;14.20;9.00;;;;;;;-3.14;100.00;97158.09;5031561;28;20216;-76
2023/01/19 02:23:19;;;;;;;14.67;9.30;;;;;;;-3.17;100.00;97157.34;5032379;28;20225;-75
2023/01/19 02:25:48;;;;;;;12.27;9.03;;;;;;;-3.23;100.00;97160.09;5032382;28;20258;-76
2023/01/19 02:28:15;;;;;;;15.83;8.70;;;;;;;-3.27;100.00;97158.50;5032131;28;20303;-76
2023/01/19 02:30:43;;;;;;;15.33;9.57;;;;;;;-3.27;100.00;97155.91;5031029;28;20623;-75
2023/01/19 02:33:09;;;;;;;14.70;9.37;;;;;;;-3.25;100.00;97149.81;5031805;28;20239;-75
2023/01/19 02:35:38;;;;;;;14.73;9.57;;;;;;;-3.28;100.00;97157.66;5032266;28;20222;-76
2023/01/19 02:38:06;;;;;;;13.63;9.13;;;;;;;-3.21;100.00;97160.91;5032018;28;20678;-76
2023/01/19 02:40:33;;;;;;;13.73;9.03;;;;;;;-3.26;100.00;97162.78;5031278;28;20579;-75
2023/01/19 02:43:02;;;;;;;14.60;9.37;;;;;;;-3.29;100.00;97161.16;5031822;28;20239;-75
2023/01/19 02:45:28;;;;;;;15.43;9.40;;;;;;;-3.33;100.00;97169.03;5031963;28;20213;-75
2023/01/19 02:47:55;;;;;;;15.73;9.87;;;;;;;-3.30;100.00;97168.94;5031990;28;20211;-75
2023/01/19 02:50:37;;;;;;;14.87;9.63;;;;;;;-3.24;100.00;97171.34;5031213;28;20269;-75
2023/01/19 02:53:17;;;;;;;15.93;9.47;;;;;;;-3.26;100.00;97170.53;5031745;28;20714;-75
2023/01/19 02:55:53;;;;;;;14.27;9.67;;;;;;;-3.30;100.00;97171.53;5031593;28;20584;-75
2023/01/19 02:58:29;;;;;;;12.50;8.93;;;;;;;-3.34;100.00;97167.34;5031660;28;20204;-77
2023/01/19 03:01:04;;;;;;;15.53;10.07;;;;;;;-3.34;100.00;97169.91;5031123;28;20215;-75
2023/01/19 03:03:37;;;;;;;18.47;10.57;;;;;;;-3.35;100.00;97163.06;5031538;28;20741;-75
2023/01/19 03:06:08;;;;;;;14.90;9.87;;;;;;;-3.33;100.00;97171.59;5031818;28;20238;-77
2023/01/19 03:08:43;;;;;;;13.53;8.43;;;;;;;-3.37;100.00;97172.59;5031553;28;20212;-75
2023/01/19 03:11:12;;;;;;;14.37;9.10;;;;;;;-3.36;100.00;97174.28;5030915;28;20235;-77
2023/01/19 03:13:47;;;;;;;13.30;9.20;;;;;;;-3.35;100.00;97175.97;5030967;28;20235;-75
2023/01/19 03:16:20;;;;;;;15.30;9.57;;;;;;;-3.37;100.00;97172.59;5031433;28;20213;-76
2023/01/19 03:18:51;;;;;;;14.20;8.80;;;;;;;-3.37;100.00;97167.44;5030904;28;20209;-75
2023/01/19 03:21:20;;;;;;;17.53;10.00;;;;;;;-3.40;100.00;97178.72;5031202;28;20669;-78
2023/01/19 03:23:48;;;;;;;16.40;9.97;;;;;;;-3.28;100.00;97167.16;5031300;28;20208;-75
2023/01/19 03:26:18;;;;;;;14.87;9.60;;;;;;;-3.29;100.00;97171.50;5031338;28;20576;-75
2023/01/19 03:28:48;;;;;;;15.10;9.83;;;;;;;-3.29;100.00;97162.88;5030873;28;20300;-75
2023/01/19 03:31:17;;;;;;;16.70;9.33;;;;;;;-3.25;100.00;97165.31;5030884;28;20211;-75
2023/01/19 03:33:49;;;;;;;14.50;9.50;;;;;;;-3.30;100.00;97174.94;5031107;28;20232;-76
2023/01/19 03:36:20;;;;;;;14.10;9.17;;;;;;;-3.34;100.00;97168.19;5031255;28;20213;-76
2023/01/19 03:38:49;;;;;;;15.10;10.20;;;;;;;-3.35;100.00;97175.97;5030990;28;20230;-76
2023/01/19 03:41:19;;;;;;;14.60;9.03;;;;;;;-3.39;100.00;97170.06;5030996;28;20317;-75
2023/01/19 03:43:50;;;;;;;13.40;8.80;;;;;;;-3.38;100.00;97171.75;5031007;28;20211;-76
2023/01/19 03:46:17;;;;;;;12.93;8.73;;;;;;;-3.45;100.00;97175.41;5031246;28;20216;-76
2023/01/19 03:48:45;;;;;;;15.57;9.53;;;;;;;-3.47;100.00;97172.03;5030788;28;20209;-75
2023/01/19 03:51:13;;;;;;;15.20;9.10;;;;;;;-3.48;100.00;97175.47;5030368;28;20235;-75
2023/01/19 03:53:40;;;;;;;16.60;10.53;;;;;;;-3.51;100.00;97182.47;5030977;28;20239;-76
2023/01/19 03:56:12;;;;;;;14.33;9.43;;;;;;;-3.51;100.00;97174.72;5030870;28;20304;-76
2023/01/19 03:58:38;;;;;;;16.23;9.63;;;;;;;-3.53;100.00;97184.28;5030834;28;20229;-76
2023/01/19 04:01:06;;;;;;;14.97;9.93;;;;;;;-3.47;100.00;97187.53;5030313;28;20205;-75
2023/01/19 04:03:33;;;;;;;15.17;9.43;;;;;;;-3.46;100.00;97183.19;5030987;28;20711;-75
2023/01/19 04:05:59;;;;;;;16.77;9.10;;;;;;;-3.46;100.00;97190.94;5030882;28;20699;-77
2023/01/19 04:08:26;;;;;;;11.97;8.90;;;;;;;-3.44;100.00;97186.56;5031440;28;20613;-77
2023/01/19 04:10:52;;;;;;;15.03;9.43;;;;;;;-3.43;100.00;97183.13;5030102;28;20232;-77
2023/01/19 04:13:18;;;;;;;16.07;9.73;;;;;;;-3.37;100.00;97185.53;5030999;28;20241;-77
2023/01/19 04:15:45;;;;;;;16.50;9.93;;;;;;;-3.39;100.00;97189.88;5031068;28;20232;-77
2023/01/19 04:18:13;;;;;;;13.60;8.93;;;;;;;-3.38;100.00;97191.56;5030928;28;20209;-77
2023/01/19 04:20:39;;;;;;;14.27;9.57;;;;;;;-3.34;100.00;97193.16;5030185;28;20206;-77
2023/01/19 04:23:06;;;;;;;17.10;9.70;;;;;;;-3.39;100.00;97189.88;5030699;28;20232;-77
2023/01/19 04:25:33;;;;;;;16.90;10.57;;;;;;;-3.38;100.00;97196.72;5032861;28;20228;-75
2023/01/19 04:27:59;;;;;;;13.10;8.73;;;;;;;-3.38;100.00;97201.88;5034470;28;20210;-75
2023/01/19 04:30:26;;;;;;;15.17;9.43;;;;;;;-3.41;100.00;97202.00;5033820;28;20285;-77
2023/01/19 04:32:54;;;;;;;15.10;9.87;;;;;;;-3.42;100.00;97195.97;5073181;22;20238;-78
2023/01/19 04:35:22;;;;;;;15.53;10.20;;;;;;;-3.37;100.00;97203.59;5083812;28;20229;-78
2023/01/19 04:37:48;;;;;;;16.10;9.97;;;;;;;-3.42;100.00;97211.47;5084901;28;20209;-79
2023/01/19 04:40:15;;;;;;;14.50;9.47;;;;;;;-3.43;100.00;97203.78;5089647;28;20200;-79
2023/01/19 04:42:43;;;;;;;17.40;10.43;;;;;;;-3.45;100.00;97210.69;5096019;28;20218;-79
2023/01/19 04:45:10;;;;;;;16.10;9.80;;;;;;;-3.45;100.00;97200.38;5099828;28;20193;-78
2023/01/19 04:47:37;;;;;;;15.60;9.67;;;;;;;-3.50;100.00;97210.84;5099689;28;20192;-78
2023/01/19 04:50:05;;;;;;;16.07;9.43;;;;;;;-3.46;100.00;97203.84;5099172;28;20195;-78
2023/01/19 04:52:34;;;;;;;15.57;9.30;;;;;;;-3.43;100.00;97203.78;5099610;28;20284;-79
2023/01/19 04:55:00;;;;;;;13.77;9.10;;;;;;;-3.47;100.00;97212.50;5099550;28;20242;-80
2023/01/19 04:57:27;;;;;;;14.40;8.53;;;;;;;-3.48;100.00;97205.66;5099058;28;20192;-80
2023/01/19 04:59:53;;;;;;;13.87;9.27;;;;;;;-3.46;100.00;97215.03;5098695;28;20228;-80
2023/01/19 05:02:20;;;;;;;12.03;8.57;;;;;;;-3.52;100.00;97210.06;5099355;28;20331;-79
2023/01/19 05:04:47;;;;;;;12.90;8.23;;;;;;;-3.53;100.00;97207.50;5099324;28;20263;-79
2023/01/19 05:07:13;;;;;;;12.27;8.33;;;;;;;-3.53;100.00;97210.09;5099262;28;20243;-80
2023/01/19 05:09:41;;;;;;;15.57;9.30;;;;;;;-3.53;100.00;97213.53;5086929;28;20220;-79
2023/01/19 05:12:08;;;;;;;14.63;9.07;;;;;;;-3.55;100.00;97219.63;5090325;28;20234;-79
2023/01/19 05:14:34;;;;;;;13.20;8.73;;;;;;;-3.53;100.00;97217.84;5088927;28;20233;-80
2023/01/19 05:17:02;;;;;;;17.13;8.80;;;;;;;-3.53;100.00;97217.84;5089225;28;20218;-80
2023/01/19 05:19:28;;;;;;;12.43;7.93;;;;;;;-3.56;100.00;97213.59;5088916;28;20209;-78
2023/01/19 05:21:55;;;;;;;13.97;9.10;;;;;;;-3.57;100.00;97218.81;5087737;28;20257;-80
2023/01/19 05:24:21;;;;;;;12.93;8.23;;;;;;;-3.57;100.00;97216.22;5089114;28;20207;-79
2023/01/19 05:26:49;;;;;;;15.90;9.13;;;;;;;-3.54;100.00;97218.72;5087538;28;20204;-79
2023/01/19 05:29:16;;;;;;;13.73;8.30;;;;;;;-3.54;100.00;97216.16;5083152;28;20665;-79
2023/01/19 05:31:42;;;;;;;15.23;9.53;;;;;;;-3.44;100.00;97222.72;5080475;28;20213;-79
2023/01/19 05:34:11;;;;;;;15.53;9.07;;;;;;;-3.34;100.00;97214.69;5083190;28;20234;-79
2023/01/19 05:36:37;;;;;;;15.47;8.90;;;;;;;-3.32;100.00;97218.06;5088436;28;20232;-79
2023/01/19 05:39:04;;;;;;;12.90;9.30;;;;;;;-3.31;100.00;97217.16;5093468;28;20210;-80
2023/01/19 05:41:30;;;;;;;14.67;8.47;;;;;;;-3.38;100.00;97214.78;5089177;28;20211;-79
2023/01/19 05:43:58;;;;;;;13.07;8.47;;;;;;;-3.40;100.00;97222.63;5089532;28;20209;-79
2023/01/19 05:46:25;;;;;;;14.70;7.93;;;;;;;-3.42;100.00;97228.72;5088814;28;20210;-80
2023/01/19 05:48:52;;;;;;;13.20;7.83;;;;;;;-3.46;100.00;97240.00;5088037;28;20215;-79
2023/01/19 05:51:18;;;;;;;14.07;9.13;;;;;;;-3.46;100.00;97240.00;5089058;28;20703;-79
2023/01/19 05:53:45;;;;;;;16.03;9.10;;;;;;;-3.43;100.00;97245.09;5087455;28;20228;-79
2023/01/19 05:56:11;;;;;;;14.97;8.90;;;;;;;-3.45;100.00;97242.56;5076264;28;20232;-79
2023/01/19 05:58:39;;;;;;;13.80;9.20;;;;;;;-3.49;100.00;97247.84;5076429;28;20208;-79
2023/01/19 06:01:09;;;;;;;16.17;8.60;;;;;;;-3.52;100.00;97251.38;5074796;28;20287;-79
2023/01/19 06:03:38;;;;;;;15.27;9.00;;;;;;;-3.50;100.00;97243.56;5077220;28;20232;-79
2023/01/19 06:06:04;;;;;;;12.17;8.47;;;;;;;-3.49;100.00;97260.78;5091033;28;20206;-79
2023/01/19 06:08:31;;;;;;;14.20;9.23;;;;;;;-3.57;100.00;97248.06;5093415;28;20204;-80
2023/01/19 06:10:57;;;;;;;11.77;8.37;;;;;;;-3.66;100.00;97252.66;5097514;28;20193;-78
2023/01/19 06:13:24;;;;;;;15.80;9.37;;;;;;;-3.68;100.00;97255.25;5097966;28;20221;-79
2023/01/19 06:15:56;;;;;;;15.60;9.20;;;;;;;-3.70;100.00;97261.34;5097984;28;20229;-78
2023/01/19 06:18:24;;;;;;;14.47;8.87;;;;;;;-3.73;100.00;97258.88;5098084;28;20197;-79
2023/01/19 06:20:51;;;;;;;14.83;9.03;;;;;;;-3.72;100.00;97265.72;5097753;28;20209;-80
2023/01/19 06:23:19;;;;;;;17.17;9.70;;;;;;;-3.78;100.00;97263.31;5097189;28;20253;-78
2023/01/19 06:25:46;;;;;;;15.80;9.63;;;;;;;-3.78;100.00;97263.31;5097622;28;20197;-79
2023/01/19 06:28:12;;;;;;;15.57;9.17;;;;;;;-3.80;100.00;97271.09;5097489;28;20255;-80
2023/01/19 06:30:39;;;;;;;16.23;9.57;;;;;;;-3.82;100.00;97274.59;5096377;28;20758;-80
2023/01/19 06:33:05;;;;;;;19.77;9.57;;;;;;;-3.79;100.00;97271.94;5091951;28;20239;-78
2023/01/19 06:35:34;;;;;;;15.93;9.20;;;;;;;-3.77;100.00;97280.47;5086888;28;20239;-78
2023/01/19 06:38:01;;;;;;;12.40;8.93;;;;;;;-3.76;100.00;97277.00;5081612;28;20312;-78
2023/01/19 06:40:27;;;;;;;16.53;9.70;;;;;;;-3.75;100.00;97283.84;5081946;28;20209;-78
2023/01/19 06:42:54;;;;;;;17.30;9.57;;;;;;;-3.72;100.00;97287.19;5082970;28;20226;-78
2023/01/19 06:45:20;;;;;;;14.63;9.07;;;;;;;-3.57;100.00;97288.53;5083185;28;20211;-78
2023/01/19 06:47:47;;;;;;;16.83;9.27;;;;;;;-3.48;100.00;97293.44;5081856;28;20621;-78
2023/01/19 06:50:13;;;;;;;14.03;9.77;;;;;;;-3.32;100.00;97287.81;5082375;28;20207;-78
2023/01/19 06:52:41;;;;;;;14.20;10.00;;;;;;;-3.20;100.00;97289.19;5095219;28;20240;-79
2023/01/19 06:55:09;;;;;;;15.50;9.93;;;;;;;-3.12;100.00;97293.22;5095866;28;20259;-78
2023/01/19 06:57:37;;;;;;;15.30;10.10;;;;;;;-3.04;100.00;97285.28;5094612;28;20213;-78
2023/01/19 07:00:06;;;;;;;12.80;9.17;;;;;;;-3.03;100.00;97281.78;5094636;28;20284;-78
2023/01/19 07:02:33;;;;;;;16.93;9.67;;;;;;;-3.07;100.00;97285.38;5095236;28;20413;-78
2023/01/19 07:04:59;;;;;;;14.60;8.93;;;;;;;-3.20;100.00;97289.19;5092603;28;20208;-78
2023/01/19 07:07:26;;;;;;;14.13;9.20;;;;;;;-3.29;100.00;97273.97;5093481;28;20213;-78
2023/01/19 07:09:54;;;;;;;17.10;10.13;;;;;;;-3.35;100.00;97287.03;5091272;28;20690;-79
2023/01/19 07:12:21;;;;;;;14.47;8.67;;;;;;;-3.40;100.00;97287.19;5091336;28;20229;-79
2023/01/19 07:14:48;;;;;;;14.47;9.00;;;;;;;-3.42;100.00;97288.13;5088478;28;20382;-78
2023/01/19 07:17:15;;;;;;;13.87;9.83;;;;;;;-3.41;100.00;97284.63;5080355;28;20204;-78
2023/01/19 07:19:41;;;;;;;16.10;9.87;;;;;;;-3.40;100.00;97288.91;5071620;28;20308;-78
2023/01/19 07:22:08;;;;;;;15.93;10.20;;;;;;;-3.40;100.00;97284.59;5073264;28;20242;-79
2023/01/19 07:24:34;;;;;;;15.13;9.47;;;;;;;-3.42;100.00;97283.78;5087548;28;20700;-78
2023/01/19 07:27:02;;;;;;;14.20;9.17;;;;;;;-3.44;100.00;97279.53;5079086;28;20242;-78
2023/01/19 07:29:28;;;;;;;16.67;9.70;;;;;;;-3.44;100.00;97295.03;5070926;28;20217;-79
2023/01/19 07:31:55;;;;;;;17.47;9.57;;;;;;;-3.47;100.00;97289.97;5071344;28;20227;-79
2023/01/19 07:34:21;;;;;;;14.63;9.00;;;;;;;-3.47;100.00;97290.84;5071216;28;20207;-78
2023/01/19 07:36:48;;;;;;;16.80;9.07;;;;;;;-3.47;100.00;97290.84;5071231;28;20239;-78
2023/01/19 07:39:15;;;;;;;14.10;9.10;;;;;;;-3.53;100.00;97287.56;5070444;28;20209;-78
2023/01/19 07:41:41;;;;;;;15.43;9.37;;;;;;;-3.55;100.00;97289.34;5071381;28;20214;-77
2023/01/19 07:44:09;;;;;;;16.80;9.60;;;;;;;-3.51;100.00;97291.78;5075224;28;20216;-77
2023/01/19 07:46:36;;;;;;;14.03;9.17;;;;;;;-3.57;100.00;97286.81;5078676;28;20212;-78
2023/01/19 07:49:02;;;;;;;15.83;9.47;;;;;;;-3.55;100.00;97294.50;5071068;28;20209;-77
2023/01/19 07:51:29;;;;;;;16.20;9.50;;;;;;;-3.59;100.00;97305.81;5076940;28;20214;-78
2023/01/19 07:53:55;;;;;;;18.00;11.13;;;;;;;-3.57;100.00;97298.84;5091152;28;20211;-78
2023/01/19 07:56:23;;;;;;;13.20;9.40;;;;;;;-3.53;100.00;97300.47;5071583;28;20701;-77
2023/01/19 07:58:51;;;;;;;17.50;10.10;;;;;;;-3.50;100.00;97315.88;5069763;28;20215;-77
2023/01/19 08:01:19;;;;;;;18.67;9.57;;;;;;;-3.44;100.00;97326.88;5075000;28;20266;-80
2023/01/19 08:03:47;;;;;;;16.03;10.23;;;;;;;-3.38;100.00;97321.56;5075199;28;20229;-77
2023/01/19 08:06:19;;;;;;;15.77;9.77;;;;;;;-3.31;100.00;97324.81;5075096;28;20212;-76
2023/01/19 08:08:46;;;;;;;17.10;10.67;;;;;;;-3.30;100.00;97329.94;5074876;28;20220;-77
2023/01/19 08:11:14;;;;;;;14.83;9.47;;;;;;;-3.25;100.00;97338.41;5074871;28;20212;-78
2023/01/19 08:13:40;;;;;;;14.90;10.20;;;;;;;-3.23;100.00;97335.78;5075475;28;20276;-79
2023/01/19 08:16:07;;;;;;;17.23;10.00;;;;;;;-3.22;100.00;97321.97;5074787;28;20297;-78
2023/01/19 08:18:35;;;;;;;16.50;9.93;;;;;;;-3.16;100.00;97321.78;5073741;28;20214;-78
2023/01/19 08:21:02;;;;;;;12.40;8.77;;;;;;;-3.06;100.00;97325.81;5071603;28;20212;-77
2023/01/19 08:23:28;;;;;;;14.10;8.10;;;;;;;-2.95;100.00;97328.94;5073794;28;20241;-79
2023/01/19 08:25:55;;;;;;;15.97;8.73;;;;;;;-2.90;100.00;97332.22;5073567;28;20220;-78
2023/01/19 08:28:21;;;;;;;14.07;8.27;;;;;;;-2.82;100.00;97335.44;5079685;28;20216;-79
2023/01/19 08:30:52;;;;;;;14.33;9.13;;;;;;;-2.78;100.00;97337.03;5073303;28;20209;-78
2023/01/19 08:33:20;;;;;;;12.13;8.30;;;;;;;-2.68;100.00;97335.88;5071307;28;20287;-79
2023/01/19 08:35:50;;;;;;;17.00;9.20;;;;;;;-2.59;100.00;97330.41;5073280;28;20237;-77
2023/01/19 08:38:16;;;;;;;13.97;9.57;;;;;;;-2.52;100.00;97331.94;5073476;28;20669;-77
2023/01/19 08:40:43;;;;;;;13.83;8.77;;;;;;;-2.35;100.00;97334.84;5063880;28;20651;-77
2023/01/19 08:43:11;;;;;;;12.90;8.10;;;;;;;-2.23;100.00;97337.03;5053402;28;20237;-77
2023/01/19 08:45:45;;;;;;;11.47;8.47;;;;;;;-2.12;100.00;97337.53;5053438;28;20202;-77
2023/01/19 08:48:12;;;;;;;14.23;8.43;;;;;;;-2.06;100.00;97340.78;5053167;28;20200;-76
2023/01/19 08:50:39;;;;;;;10.40;7.23;;;;;;;-1.90;100.00;97334.19;5057933;28;20260;-77
2023/01/19 08:53:07;;;;;;;10.73;7.53;;;;;;;-1.78;100.00;97348.50;5063078;28;20758;-78
2023/01/19 08:55:35;;;;;;;10.73;7.40;;;;;;;-1.72;100.00;97345.72;5070120;28;20234;-80
2023/01/19 08:58:03;;;;;;;10.53;7.00;;;;;;;-1.60;100.00;97340.94;5074049;28;20684;-80
2023/01/19 09:00:32;;;;;;;8.90;6.03;;;;;;;-1.48;100.00;97340.53;5072991;28;20208;-80
2023/01/19 09:03:00;;;;;;;10.10;6.03;;;;;;;-1.34;100.00;97340.91;5074123;28;20298;-78
2023/01/19 09:05:27;;;;;;;11.00;6.37;;;;;;;-1.24;100.00;97344.03;5073835;28;20294;-78
2023/01/19 09:07:53;;;;;;;10.27;6.97;;;;;;;-1.13;100.00;97345.31;5074054;28;20225;-79
2023/01/19 09:10:21;;;;;;;11.37;6.30;;;;;;;-0.93;100.00;97344.59;5072986;28;20209;-80
2023/01/19 09:12:49;;;;;;;9.07;6.43;;;;;;;-0.77;100.00;97348.31;5072723;28;20242;-83
2023/01/19 09:15:15;;;;;;;10.10;5.90;;;;;;;-0.59;100.00;97347.63;5074121;28;20218;-82
2023/01/19 09:17:42;;;;;;;10.43;6.00;;;;;;;-0.38;100.00;97341.63;5074407;28;20233;-82
2023/01/19 09:20:10;;;;;;;12.37;7.13;;;;;;;-0.20;100.00;97346.94;5073555;28;20215;-82
2023/01/19 09:22:38;;;;;;;10.80;7.07;;;;;;;-0.08;100.00;97347.31;5074311;28;20237;-82
2023/01/19 09:25:05;;;;;;;8.70;6.60;;;;;;;-0.01;100.00;97345.28;5073873;28;20748;-81
2023/01/19 09:27:33;;;;;;;10.50;6.43;;;;;;;0.07;100.00;97341.47;5073913;28;20215;-82
2023/01/19 09:30:00;;;;;;;10.80;6.80;;;;;;;0.11;100.00;97350.84;5073452;28;20306;-82
2023/01/19 09:32:26;;;;;;;10.50;6.30;;;;;;;0.13;100.00;97343.00;5074103;28;20235;-81
2023/01/19 09:34:55;;;;;;;8.43;6.40;;;;;;;0.19;100.00;97342.75;5073928;28;20214;-82
2023/01/19 09:37:21;;;;;;;9.53;6.40;;;;;;;0.18;100.00;97339.28;5073996;28;20257;-81
2023/01/19 09:39:48;;;;;;;8.53;6.10;;;;;;;0.18;100.00;97349.69;5073321;28;20215;-82
2023/01/19 09:42:21;;;;;;;9.40;6.63;;;;;;;0.20;100.00;97345.25;5073594;28;20254;-81
2023/01/19 09:44:52;;;;;;;10.63;5.97;;;;;;;0.25;100.00;97339.91;5073933;28;20203;-82
2023/01/19 09:47:24;;;;;;;6.57;5.43;;;;;;;0.29;100.00;97336.25;5073802;28;20206;-82
2023/01/19 09:49:57;;;;;;;7.97;5.40;;;;;;;0.30;100.00;97337.94;5072982;28;20673;-82
2023/01/19 09:52:24;;;;;;;8.37;5.33;;;;;;;0.34;100.00;97334.31;5073540;28;20235;-82
2023/01/19 09:54:54;;;;;;;7.53;5.37;;;;;;;0.34;100.00;97327.38;5073119;28;20216;-82
2023/01/19 09:57:21;;;;;;;8.13;5.83;;;;;;;0.39;100.00;97322.78;5073516;28;20630;-82
2023/01/19 09:59:50;;;;;;;6.77;5.07;;;;;;;0.34;100.00;97316.13;5073167;28;20207;-82
2023/01/19 10:02:32;;;;;;;7.00;4.77;;;;;;;0.40;100.00;97314.13;5073351;28;20571;-82
2023/01/19 10:05:01;;;;;;;7.57;5.27;;;;;;;0.49;100.00;97318.91;5073037;28;20214;-81
2023/01/19 10:07:53;;;;;;;6.43;5.10;;;;;;;0.60;100.00;97316.69;5073601;28;20677;-82
2023/01/19 10:10:22;;;;;;;7.03;4.83;;;;;;;0.65;100.00;97312.16;5072598;28;20276;-82
2023/01/19 10:12:59;;;;;;;7.83;5.40;;;;;;;0.75;100.00;97310.00;5073062;28;20574;-82
2023/01/19 10:15:37;;;;;;;7.67;5.27;;;;;;;0.87;100.00;97304.25;5073017;28;20217;-82
2023/01/19 10:18:18;;;;;;;7.67;5.00;;;;;;;1.02;99.98;97290.56;5073103;28;20207;-82
2023/01/19 10:20:49;;;;;;;8.37;4.80;;;;;;;1.04;98.74;97291.34;5072506;28;20692;-82
2023/01/19 10:23:29;;;;;;;7.70;4.47;;;;;;;1.11;97.62;97283.19;5072708;28;20232;-82
2023/01/19 10:25:57;;;;;;;5.77;4.43;;;;;;;1.15;97.46;97283.88;5072660;28;20732;-82
2023/01/19 10:28:26;;;;;;;6.33;4.73;;;;;;;1.14;97.38;97288.25;5072817;28;20218;-82
2023/01/19 10:30:55;;;;;;;6.33;4.43;;;;;;;1.17;97.30;97280.28;5072098;28;20204;-82
2023/01/19 10:33:23;;;;;;;6.53;4.47;;;;;;;1.20;96.73;97279.31;5086346;22;20227;-76
2023/01/19 10:35:49;;;;;;;5.67;4.20;;;;;;;1.27;96.18;97286.78;5072105;28;20234;-75
2023/01/19 10:38:20;;;;;;;7.00;4.57;;;;;;;1.38;95.85;97276.72;5071891;28;20210;-76
2023/01/19 10:40:52;;;;;;;7.73;4.70;;;;;;;1.46;95.56;97274.59;5071130;28;20228;-77
2023/01/19 10:43:44;;;;;;;6.90;5.33;;;;;;;1.47;95.11;97281.47;5071875;28;20223;-76
2023/01/19 10:46:24;;;;;;;7.30;4.97;;;;;;;1.53;95.25;97278.59;5066306;28;20205;-77
2023/01/19 10:48:53;;;;;;;7.77;5.23;;;;;;;1.51;94.88;97272.63;5071402;28;20230;-77
2023/01/19 10:51:23;;;;;;;7.47;4.53;;;;;;;1.43;94.90;97279.97;5071673;28;20217;-76
2023/01/19 10:53:58;;;;;;;6.17;4.47;;;;;;;1.54;93.19;97269.84;5071740;28;20315;-75
2023/01/19 10:56:29;;;;;;;5.10;3.83;;;;;;;1.53;91.32;97255.16;5071587;28;20230;-76
2023/01/19 10:58:57;;;;;;;4.77;3.87;;;;;;;1.58;90.50;97258.41;5070956;28;20376;-76
2023/01/19 11:01:29;;;;;;;5.83;4.60;;;;;;;1.68;90.63;97306.53;5071192;28;20563;-76
2023/01/19 11:04:04;;;;;;;4.63;4.13;;;;;;;1.72;90.17;97297.63;5071672;28;20253;-76
2023/01/19 11:06:31;;;;;;;5.70;4.47;;;;;;;1.70;90.38;97303.81;5071593;28;20238;-75
2023/01/19 11:09:15;;;;;;;6.63;4.43;;;;;;;1.72;90.66;97296.81;5070770;28;20226;-77
2023/01/19 11:11:48;;;;;;;5.30;4.23;;;;;;;1.84;89.96;97302.25;5071317;28;20239;-78
2023/01/19 11:14:18;;;;;;;6.60;4.40;;;;;;;1.96;88.36;97296.47;5071525;28;20324;-77
2023/01/19 11:16:49;;;;;;;6.50;4.27;;;;;;;2.03;88.03;97292.63;5071441;28;20227;-78
2023/01/19 11:19:25;;;;;;;5.30;4.07;;;;;;;2.06;87.23;97296.84;5070545;28;20666;-78
2023/01/19 11:21:53;;;;;;;7.07;4.13;;;;;;;2.00;85.19;97287.59;5071215;28;20203;-78
2023/01/19 11:24:20;;;;;;;5.30;3.57;;;;;;;2.03;84.97;97282.22;5071191;28;20646;-80
2023/01/19 11:26:50;;;;;;;4.80;4.00;;;;;;;2.01;85.20;97283.19;5071410;28;20211;-79
2023/01/19 11:29:19;;;;;;;3.97;3.40;;;;;;;2.03;84.44;97284.00;5070622;28;20199;-77
2023/01/19 11:31:46;;;;;;;5.27;3.90;;;;;;;2.09;85.53;97292.34;5071179;28;20203;-77
2023/01/19 11:34:33;;;;;;;6.80;4.27;;;;;;;2.02;85.75;97285.72;5070714;28;20235;-78